Main page
METAR-TAF:

METAR-TAF

Airports :

Milford Municipal Airport (Ben and Judy Briscoe Field)

Milford, Utah, United States

latitude: 38-25-21N, longitude: 113-00-35W, elevation: 5038 ft

Current weather observation

The report was made 52 minutes ago, at 06:52 UTC
Wind 30 mph from the South with gusts up to 46 mph
Temperature 48°F
Humidity 31%
Pressure 29.77 in. Hg
Visibility: 10 miles
Clear sky

METAR: KMLF 020652Z AUTO 18026G40KT 10SM CLR 09/M07 A2977 RMK AO2 PK WND 18040/0649 SLP049 T00891067 401560028

Time: 00:44 (07:44 UTC)


TAF: missing

Weather observations and forecasts of more than 4000 airports (METAR and TAF reports).

The available stations are represented by yellow and red dots on the map.

Hover mouse over dot to see the name of the station.

Then click to see weather observations and forecasts.

To change the map : click on the green buttons with a black cross to zoom in, on the green button with a dash to zoom out, or on the green arrows for adjacent maps.


METAR-TAF: